Time;durP1;ratioP1;P1;durP2;ratioP2;P2;SDS_P1;SDS_P2;PMS_P1;PMS_P2;Temp;Humidity;BMP_temperature;BMP_pressure;BME280_temperature;BME280_humidity;BME280_pressure;Samples;Min_cycle;Max_cycle;Signal;HPM_P1;HPM_P2
2023/05/20 00:01:18;;;;;;;3.22;2.08;;;14.90;82.10;;;;;;5002135;28;20029;-83
2023/05/20 00:03:45;;;;;;;5.25;2.17;;;14.90;82.80;;;;;;5000082;28;20026;-83
2023/05/20 00:06:10;;;;;;;7.05;2.65;;;14.80;83.10;;;;;;4999683;28;20025;-85
2023/05/20 00:08:36;;;;;;;8.18;2.33;;;14.80;83.50;;;;;;5001157;28;20109;-83
2023/05/20 00:11:02;;;;;;;11.60;2.50;;;14.80;83.80;;;;;;5000796;28;20071;-84
2023/05/20 00:13:27;;;;;;;5.80;2.25;;;14.80;84.10;;;;;;4999994;28;20449;-83
2023/05/20 00:15:53;;;;;;;5.63;2.15;;;14.70;84.50;;;;;;5273389;22;20597;-85
2023/05/20 00:18:18;;;;;;;4.35;2.42;;;14.70;84.70;;;;;;4990461;28;20470;-83
2023/05/20 00:20:44;;;;;;;4.22;2.10;;;14.70;84.80;;;;;;4995388;28;20022;-80
2023/05/20 00:23:10;;;;;;;6.60;2.13;;;14.70;85.20;;;;;;4997473;28;20251;-83
2023/05/20 00:25:37;;;;;;;3.05;1.98;;;14.70;85.70;;;;;;4995878;28;20474;-83
2023/05/20 00:28:03;;;;;;;5.72;2.15;;;14.70;86.10;;;;;;5010851;28;20022;-82
2023/05/20 00:30:31;;;;;;;4.55;2.22;;;14.60;86.60;;;;;;4993998;28;20397;-79
2023/05/20 00:32:57;;;;;;;4.68;2.03;;;14.60;86.50;;;;;;5138241;22;20080;-82
2023/05/20 00:35:22;;;;;;;3.90;2.25;;;14.60;87.00;;;;;;4989881;28;20061;-85
2023/05/20 00:37:48;;;;;;;10.13;2.40;;;14.60;87.50;;;;;;4985436;28;20093;-82
2023/05/20 00:40:16;;;;;;;8.15;2.30;;;14.50;87.90;;;;;;4982931;28;20030;-86
2023/05/20 00:42:42;;;;;;;10.60;2.20;;;14.60;88.40;;;;;;4974535;28;20101;-82
2023/05/20 00:45:08;;;;;;;4.75;2.30;;;14.60;88.50;;;;;;4990051;28;20460;-85
2023/05/20 00:47:38;;;;;;;3.60;2.05;;;14.50;88.80;;;;;;4982943;28;20026;-82
2023/05/20 00:50:04;;;;;;;4.25;2.13;;;14.60;90.00;;;;;;4984167;28;20030;-83
2023/05/20 00:52:31;;;;;;;8.35;2.42;;;14.50;89.60;;;;;;4980357;28;20120;-83
2023/05/20 00:54:58;;;;;;;3.75;2.33;;;14.50;89.80;;;;;;4998334;28;20062;-83
2023/05/20 00:57:26;;;;;;;4.75;2.45;;;14.50;90.10;;;;;;4992914;28;20041;-82
2023/05/20 00:59:52;;;;;;;8.20;2.67;;;14.40;90.30;;;;;;4986218;28;20083;-83
2023/05/20 01:02:18;;;;;;;4.85;2.15;;;14.40;90.40;;;;;;5001585;28;20026;-82
2023/05/20 01:04:46;;;;;;;4.05;2.38;;;14.40;90.70;;;;;;4982925;28;20152;-83
2023/05/20 01:07:13;;;;;;;9.55;2.53;;;14.40;90.70;;;;;;4990984;28;20026;-82
2023/05/20 01:12:29;;;;;;;5.95;2.50;;;14.30;91.20;;;;;;5031858;23;20050;-83
2023/05/20 01:15:06;;;;;;;6.70;2.38;;;14.30;91.40;;;;;;5001690;28;20525;-82
2023/05/20 01:17:36;;;;;;;5.30;2.40;;;14.30;91.50;;;;;;5018709;28;20034;-84
2023/05/20 01:20:04;;;;;;;5.10;2.25;;;14.30;91.70;;;;;;5000099;28;20320;-82
2023/05/20 01:22:30;;;;;;;9.35;2.80;;;14.20;91.90;;;;;;5020956;28;20025;-83
2023/05/20 01:24:56;;;;;;;9.90;2.70;;;14.20;92.50;;;;;;5012634;28;20030;-82
2023/05/20 01:27:22;;;;;;;8.32;2.63;;;14.20;92.40;;;;;;5028869;28;20021;-82
2023/05/20 01:29:49;;;;;;;3.97;2.67;;;14.10;92.60;;;;;;5027922;28;20042;-83
2023/05/20 01:32:41;;;;;;;10.32;2.53;;;14.10;92.70;;;;;;5011174;28;20040;-81
2023/05/20 01:35:08;;;;;;;5.13;2.60;;;14.10;93.00;;;;;;5001423;28;20104;-82
2023/05/20 01:37:38;;;;;;;4.60;2.60;;;14.10;93.20;;;;;;5001215;28;20025;-83
2023/05/20 01:40:06;;;;;;;5.35;2.35;;;14.00;93.40;;;;;;5000831;28;20045;-81
2023/05/20 01:42:33;;;;;;;4.05;2.25;;;14.00;93.60;;;;;;5001964;28;20030;-82
2023/05/20 01:44:59;;;;;;;5.00;2.78;;;14.00;93.90;;;;;;5004760;28;20386;-83
2023/05/20 01:47:24;;;;;;;5.07;3.00;;;13.90;94.00;;;;;;5001602;28;20029;-84
2023/05/20 01:49:52;;;;;;;5.82;2.78;;;13.90;94.30;;;;;;5002643;28;20037;-82
2023/05/20 01:52:19;;;;;;;13.38;2.80;;;13.90;94.50;;;;;;5003331;28;20034;-81
2023/05/20 01:54:49;;;;;;;6.05;2.67;;;13.90;94.70;;;;;;4999332;28;20025;-84
2023/05/20 01:57:22;;;;;;;4.85;2.15;;;13.80;95.10;;;;;;5001147;28;20478;-82
2023/05/20 01:59:47;;;;;;;8.38;2.92;;;13.80;95.20;;;;;;4999818;28;20168;-82
2023/05/20 02:02:14;;;;;;;7.10;3.00;;;13.80;95.30;;;;;;5001848;28;20125;-83
2023/05/20 02:04:41;;;;;;;9.07;2.95;;;13.80;95.70;;;;;;5001432;28;20022;-83
2023/05/20 02:07:07;;;;;;;3.88;2.45;;;13.80;95.90;;;;;;5001906;28;20045;-83
2023/05/20 02:09:32;;;;;;;7.53;3.13;;;13.80;96.10;;;;;;5002840;28;20026;-81
2023/05/20 02:12:02;;;;;;;9.13;2.67;;;13.70;96.40;;;;;;5001414;28;20347;-83
2023/05/20 02:14:28;;;;;;;13.73;3.20;;;13.70;96.50;;;;;;5003493;28;20022;-83
2023/05/20 02:16:54;;;;;;;10.25;2.85;;;13.60;96.70;;;;;;5000158;28;20025;-82
2023/05/20 02:19:22;;;;;;;15.52;3.03;;;13.60;97.20;;;;;;5000782;28;20440;-84
2023/05/20 02:21:51;;;;;;;5.05;2.70;;;13.60;97.50;;;;;;4997311;28;20125;-83
2023/05/20 02:24:16;;;;;;;4.50;2.90;;;13.60;97.70;;;;;;5001718;28;20049;-83
2023/05/20 02:26:44;;;;;;;6.28;2.60;;;13.50;97.90;;;;;;5007703;28;20163;-82
2023/05/20 02:29:10;;;;;;;10.43;3.45;;;13.60;98.10;;;;;;5001601;28;20026;-82
2023/05/20 02:31:35;;;;;;;9.05;2.72;;;13.60;98.40;;;;;;5003856;28;20371;-81
2023/05/20 02:34:01;;;;;;;13.18;3.17;;;13.50;98.70;;;;;;5002514;28;20224;-83
2023/05/20 02:36:27;;;;;;;6.45;2.90;;;13.50;98.90;;;;;;5003789;28;20022;-82
2023/05/20 02:38:55;;;;;;;7.63;2.83;;;13.50;99.30;;;;;;5004951;28;20030;-84
2023/05/20 02:41:21;;;;;;;7.38;3.05;;;13.40;99.40;;;;;;5007488;28;20504;-82
2023/05/20 02:43:47;;;;;;;7.22;2.95;;;13.40;99.80;;;;;;5012462;28;20141;-82
2023/05/20 02:46:17;;;;;;;5.30;2.92;;;13.40;99.90;;;;;;5005215;28;20105;-83
2023/05/20 02:48:45;;;;;;;6.53;2.65;;;13.40;99.90;;;;;;5004901;28;20571;-84
2023/05/20 02:51:10;;;;;;;8.23;2.70;;;13.40;99.90;;;;;;5004130;28;20053;-83
2023/05/20 02:53:36;;;;;;;5.88;2.70;;;13.40;99.90;;;;;;5005967;28;20485;-81
2023/05/20 02:56:05;;;;;;;4.45;3.08;;;13.40;99.90;;;;;;5003011;28;20026;-82
2023/05/20 02:58:32;;;;;;;5.55;2.97;;;13.40;99.90;;;;;;5003212;28;20169;-83
2023/05/20 03:00:57;;;;;;;7.03;2.92;;;13.40;99.90;;;;;;5004950;28;20117;-82
2023/05/20 03:03:25;;;;;;;6.45;2.50;;;13.40;99.90;;;;;;5000106;28;20021;-81
2023/05/20 03:05:51;;;;;;;7.03;3.00;;;13.40;99.90;;;;;;5006345;28;20121;-82
2023/05/20 03:08:19;;;;;;;7.72;3.10;;;13.30;99.90;;;;;;5005301;28;20113;-83
2023/05/20 03:10:47;;;;;;;6.18;2.78;;;13.30;99.90;;;;;;5020307;28;20105;-82
2023/05/20 03:13:14;;;;;;;6.25;2.70;;;13.30;99.90;;;;;;5014420;28;20060;-80
2023/05/20 03:15:45;;;;;;;6.70;2.90;;;13.30;99.90;;;;;;5003314;28;20025;-81
2023/05/20 03:18:12;;;;;;;9.50;2.60;;;13.30;99.90;;;;;;5018931;28;20039;-83
2023/05/20 03:20:38;;;;;;;4.57;2.67;;;13.30;99.90;;;;;;5004925;28;20093;-81
2023/05/20 03:23:07;;;;;;;7.13;2.58;;;13.30;99.90;;;;;;5007852;28;20108;-83
2023/05/20 03:28:11;;;;;;;5.03;2.92;;;13.30;99.90;;;;;;5032942;22;20062;-83
2023/05/20 03:30:37;;;;;;;4.63;2.63;;;13.20;99.90;;;;;;4984653;28;20371;-82
2023/05/20 03:33:04;;;;;;;7.03;2.78;;;13.20;99.90;;;;;;4991778;28;20074;-81
2023/05/20 03:35:30;;;;;;;4.90;2.40;;;13.20;99.90;;;;;;4992526;28;20045;-83
2023/05/20 03:38:00;;;;;;;9.32;3.13;;;13.20;99.90;;;;;;4984265;28;20034;-82
2023/05/20 03:40:26;;;;;;;4.80;2.53;;;13.20;99.90;;;;;;4984166;28;20133;-83
2023/05/20 03:42:52;;;;;;;7.63;2.95;;;13.20;99.90;;;;;;4991796;28;20288;-81
2023/05/20 03:45:17;;;;;;;5.93;2.70;;;13.20;99.90;;;;;;4984284;28;20026;-84
2023/05/20 03:47:43;;;;;;;4.13;2.78;;;13.20;99.90;;;;;;4984765;28;21036;-86
2023/05/20 03:50:09;;;;;;;3.40;2.55;;;13.10;99.90;;;;;;4984089;28;20117;-83
2023/05/20 03:52:35;;;;;;;6.10;2.45;;;13.10;99.90;;;;;;4982950;28;20057;-83
2023/05/20 03:55:03;;;;;;;4.93;2.38;;;13.10;99.90;;;;;;4977781;28;20027;-84
2023/05/20 03:57:29;;;;;;;5.97;2.85;;;13.10;99.90;;;;;;4984473;28;20214;-83
2023/05/20 03:59:54;;;;;;;6.97;2.70;;;13.10;99.90;;;;;;4985231;28;20034;-84
2023/05/20 04:02:20;;;;;;;4.53;3.13;;;13.10;99.90;;;;;;4983478;28;20134;-84
2023/05/20 04:04:46;;;;;;;7.80;2.75;;;13.10;99.90;;;;;;4986379;28;20069;-84
2023/05/20 04:07:16;;;;;;;7.28;3.35;;;13.10;99.90;;;;;;4985277;28;20046;-85
2023/05/20 04:09:42;;;;;;;5.50;2.97;;;13.10;99.90;;;;;;4997813;28;20022;-86
2023/05/20 04:12:07;;;;;;;3.42;2.70;;;13.10;99.90;;;;;;4984768;28;20019;-82
2023/05/20 04:14:35;;;;;;;6.85;2.78;;;13.10;99.90;;;;;;4985556;28;20449;-81
2023/05/20 04:17:05;;;;;;;4.88;2.58;;;13.10;99.90;;;;;;4985797;28;20022;-83
2023/05/20 04:19:30;;;;;;;10.20;2.90;;;13.20;99.90;;;;;;4988423;28;20062;-84
2023/05/20 04:21:56;;;;;;;5.40;2.47;;;13.20;99.90;;;;;;4983936;28;20046;-83
2023/05/20 04:24:25;;;;;;;8.25;2.75;;;13.20;99.90;;;;;;4991380;28;20011;-85
2023/05/20 04:26:51;;;;;;;6.07;2.55;;;13.20;99.90;;;;;;5151615;23;20107;-81
2023/05/20 04:29:17;;;;;;;10.60;2.88;;;13.30;99.90;;;;;;5019314;28;20030;-83
2023/05/20 04:31:45;;;;;;;6.28;2.70;;;13.20;99.90;;;;;;5021772;28;20452;-81
2023/05/20 04:34:11;;;;;;;5.15;2.70;;;13.30;99.90;;;;;;5023481;28;20520;-81
2023/05/20 04:36:37;;;;;;;5.30;3.15;;;13.20;99.90;;;;;;5022643;28;20057;-84
2023/05/20 04:39:03;;;;;;;7.65;2.33;;;13.30;99.90;;;;;;5022356;28;20300;-83
2023/05/20 04:41:30;;;;;;;7.93;2.60;;;13.30;99.90;;;;;;5017561;28;20096;-83
2023/05/20 04:43:59;;;;;;;3.42;2.63;;;13.30;99.90;;;;;;5018237;28;20033;-83
2023/05/20 04:46:25;;;;;;;5.55;2.70;;;13.30;99.90;;;;;;5021646;28;20024;-85
2023/05/20 04:48:52;;;;;;;5.20;2.58;;;13.40;99.90;;;;;;5023846;28;20025;-86
2023/05/20 04:51:18;;;;;;;7.70;2.50;;;13.40;99.90;;;;;;5039124;28;20049;-83
2023/05/20 04:53:44;;;;;;;8.75;3.50;;;13.40;99.90;;;;;;5183598;22;20041;-83
2023/05/20 04:56:10;;;;;;;11.93;3.20;;;13.40;99.90;;;;;;5018963;28;20041;-85
2023/05/20 04:58:36;;;;;;;6.18;2.55;;;13.50;99.90;;;;;;5002088;28;20029;-85
2023/05/20 05:01:02;;;;;;;5.20;3.13;;;13.50;99.90;;;;;;5002554;28;20021;-84
2023/05/20 05:03:28;;;;;;;6.05;3.15;;;13.60;99.90;;;;;;5003596;28;20038;-84
2023/05/20 05:05:57;;;;;;;4.10;2.30;;;13.60;99.90;;;;;;5003274;28;20049;-82
2023/05/20 05:08:25;;;;;;;5.80;2.85;;;13.70;99.90;;;;;;5002403;28;20109;-83
2023/05/20 05:10:51;;;;;;;8.95;2.67;;;13.70;99.90;;;;;;5134562;22;20156;-83
2023/05/20 05:13:16;;;;;;;7.20;3.17;;;13.80;99.90;;;;;;5010567;28;20408;-83
2023/05/20 05:15:42;;;;;;;5.03;2.50;;;13.80;99.90;;;;;;5030444;28;20486;-83
2023/05/20 05:18:08;;;;;;;8.23;3.05;;;13.80;99.90;;;;;;5015956;28;20037;-83
2023/05/20 05:20:36;;;;;;;4.55;3.03;;;13.80;99.90;;;;;;5018178;28;20055;-83
2023/05/20 05:23:04;;;;;;;6.18;2.90;;;13.90;99.90;;;;;;5173348;22;20047;-84
2023/05/20 05:25:32;;;;;;;4.70;2.95;;;13.90;99.90;;;;;;5104525;23;20057;-85
2023/05/20 05:27:57;;;;;;;6.50;3.25;;;13.90;99.90;;;;;;5002551;28;20062;-85
2023/05/20 05:30:23;;;;;;;4.13;2.42;;;13.90;99.90;;;;;;5015169;28;20060;-84
2023/05/20 05:32:49;;;;;;;7.97;2.88;;;14.00;99.90;;;;;;5014891;28;20113;-85
2023/05/20 05:35:15;;;;;;;5.65;2.75;;;14.10;99.90;;;;;;5015001;28;20560;-83
2023/05/20 05:37:40;;;;;;;9.13;2.80;;;14.10;99.90;;;;;;5000351;28;20124;-83
2023/05/20 05:40:09;;;;;;;7.88;2.70;;;14.20;99.90;;;;;;4998279;28;20025;-82
2023/05/20 05:42:35;;;;;;;5.30;2.83;;;14.30;99.90;;;;;;5002184;28;20229;-85
2023/05/20 05:45:01;;;;;;;6.22;3.08;;;14.30;99.90;;;;;;5000202;28;20017;-85
2023/05/20 05:47:31;;;;;;;4.97;3.00;;;14.40;99.90;;;;;;5003221;28;20029;-85
2023/05/20 05:52:42;;;;;;;7.60;2.70;;;14.50;99.90;;;;;;5065759;22;20068;-82
2023/05/20 05:55:09;;;;;;;14.60;3.45;;;14.60;99.90;;;;;;5009261;28;20449;-84
2023/05/20 05:57:35;;;;;;;4.30;2.85;;;14.60;99.90;;;;;;5000718;28;20034;-82
2023/05/20 06:00:00;;;;;;;8.65;2.88;;;14.70;99.90;;;;;;5003512;28;20476;-83
2023/05/20 06:02:26;;;;;;;6.63;2.58;;;14.70;99.90;;;;;;5003281;28;20283;-85
2023/05/20 06:04:52;;;;;;;11.20;2.80;;;14.70;99.90;;;;;;5001713;28;20109;-84
2023/05/20 06:07:17;;;;;;;22.45;9.77;;;14.90;99.90;;;;;;5005756;28;20053;-87
2023/05/20 06:09:43;;;;;;;10.25;4.97;;;14.90;99.90;;;;;;5003317;28;20057;-84
2023/05/20 06:12:11;;;;;;;7.25;3.20;;;15.00;99.90;;;;;;4999254;28;20454;-83
2023/05/20 06:14:37;;;;;;;4.55;2.70;;;15.10;99.90;;;;;;5002677;28;20037;-83
2023/05/20 06:19:44;;;;;;;4.85;2.85;;;15.30;99.90;;;;;;5051573;22;20467;-86
2023/05/20 06:22:09;;;;;;;8.52;2.65;;;15.40;99.90;;;;;;5004902;28;20010;-85
2023/05/20 06:24:35;;;;;;;8.45;2.85;;;15.50;99.90;;;;;;4989784;28;20033;-86
2023/05/20 06:27:01;;;;;;;6.32;3.15;;;15.60;99.90;;;;;;4993754;28;20023;-86
2023/05/20 06:29:27;;;;;;;10.90;3.15;;;15.70;99.90;;;;;;4986771;28;20018;-85
2023/05/20 06:31:53;;;;;;;2.60;2.40;;;15.70;99.90;;;;;;4992719;28;20041;-85
2023/05/20 06:34:19;;;;;;;6.00;3.00;;;15.80;99.90;;;;;;4985649;28;20459;-84
2023/05/20 06:36:44;;;;;;;5.18;3.00;;;15.90;99.90;;;;;;5146603;22;20042;-87
2023/05/20 06:39:11;;;;;;;10.45;3.15;;;16.00;99.90;;;;;;4997929;28;20449;-86
2023/05/20 06:41:43;;;;;;;4.35;2.88;;;16.00;99.90;;;;;;4997942;28;20041;-87
2023/05/20 06:44:08;;;;;;;8.48;2.72;;;16.10;99.90;;;;;;4997588;28;20034;-85
2023/05/20 06:46:34;;;;;;;6.15;2.85;;;16.20;99.90;;;;;;4996776;28;20045;-87
2023/05/20 06:49:02;;;;;;;4.20;2.80;;;16.30;99.90;;;;;;5009786;28;20327;-86
2023/05/20 06:51:28;;;;;;;5.45;2.80;;;16.40;99.90;;;;;;4993172;28;20026;-86
2023/05/20 06:53:53;;;;;;;8.80;3.25;;;16.40;99.90;;;;;;4994758;28;20033;-87
2023/05/20 06:56:22;;;;;;;5.38;2.95;;;16.50;99.90;;;;;;4992224;28;20045;-87
2023/05/20 06:58:47;;;;;;;3.22;2.90;;;16.70;99.80;;;;;;4996859;28;20030;-88
2023/05/20 07:01:13;;;;;;;7.72;3.40;;;16.80;99.30;;;;;;5008716;28;20041;-88
2023/05/20 07:03:39;;;;;;;3.45;3.15;;;16.90;99.20;;;;;;4996911;28;20022;-86
2023/05/20 07:06:07;;;;;;;6.68;3.22;;;17.00;98.90;;;;;;5012654;28;20019;-84
2023/05/20 07:08:35;;;;;;;9.65;3.33;;;17.00;98.20;;;;;;5017105;28;20037;-85
2023/05/20 07:11:01;;;;;;;8.60;3.05;;;17.10;97.90;;;;;;5014898;28;20022;-84
2023/05/20 07:13:27;;;;;;;5.00;2.88;;;17.20;97.50;;;;;;5155620;22;20217;-83
2023/05/20 07:15:55;;;;;;;14.43;3.63;;;17.30;97.60;;;;;;5142375;22;20038;-84
2023/05/20 07:18:20;;;;;;;13.05;2.75;;;17.40;97.60;;;;;;5144875;22;20116;-85
2023/05/20 07:20:51;;;;;;;7.10;3.15;;;17.60;97.30;;;;;;4994365;28;20030;-83
2023/05/20 07:23:16;;;;;;;4.72;3.25;;;17.60;96.40;;;;;;5003902;28;20441;-85
2023/05/20 07:25:42;;;;;;;4.72;2.97;;;17.70;96.40;;;;;;4995579;28;20026;-83
2023/05/20 07:28:07;;;;;;;3.47;2.80;;;17.90;96.40;;;;;;4998815;28;20053;-85
2023/05/20 07:30:33;;;;;;;6.70;3.30;;;18.00;95.50;;;;;;5026597;28;20153;-84
2023/05/20 07:32:59;;;;;;;3.40;3.05;;;18.00;95.20;;;;;;5005795;28;20060;-85
2023/05/20 07:35:24;;;;;;;6.10;2.63;;;18.00;95.00;;;;;;5008868;28;20117;-84
2023/05/20 07:37:50;;;;;;;2.85;2.53;;;18.10;95.20;;;;;;5001220;28;20049;-84
2023/05/20 07:40:16;;;;;;;5.32;2.70;;;18.20;94.60;;;;;;4995150;28;20058;-85
2023/05/20 07:42:41;;;;;;;43.80;18.05;;;18.30;94.20;;;;;;4997784;28;20030;-87
2023/05/20 07:45:08;;;;;;;251.57;107.90;;;18.30;94.10;;;;;;4997091;28;20071;-85
2023/05/20 07:47:33;;;;;;;7.32;2.72;;;18.40;94.30;;;;;;4995802;28;20273;-86
2023/05/20 07:50:01;;;;;;;2.67;2.47;;;18.60;93.90;;;;;;4997260;28;20064;-86
2023/05/20 07:52:29;;;;;;;4.05;2.50;;;18.70;93.60;;;;;;4999783;28;20364;-85
2023/05/20 07:54:55;;;;;;;7.85;2.80;;;18.80;93.10;;;;;;5002772;28;20072;-84
2023/05/20 07:57:20;;;;;;;4.15;2.47;;;19.00;92.90;;;;;;5004180;28;20042;-84
2023/05/20 07:59:48;;;;;;;5.57;2.90;;;19.10;92.70;;;;;;4998858;28;20018;-85
2023/05/20 08:02:14;;;;;;;3.17;2.35;;;19.30;92.10;;;;;;4994319;28;20169;-85
2023/05/20 08:04:40;;;;;;;4.50;2.70;;;19.40;92.10;;;;;;4997603;28;20029;-83
2023/05/20 08:07:08;;;;;;;3.22;2.58;;;19.40;91.60;;;;;;5002273;28;20018;-86
2023/05/20 08:09:33;;;;;;;3.63;3.08;;;19.50;91.60;;;;;;5000491;28;20034;-85
2023/05/20 08:11:59;;;;;;;3.33;2.88;;;19.60;91.20;;;;;;5004185;28;20029;-85
2023/05/20 08:14:27;;;;;;;3.90;3.22;;;19.60;90.90;;;;;;5016045;28;20018;-86
2023/05/20 08:16:53;;;;;;;3.92;2.60;;;19.60;90.90;;;;;;5018566;28;20010;-84
2023/05/20 08:19:18;;;;;;;10.38;2.65;;;19.60;90.80;;;;;;5022347;28;20402;-83
2023/05/20 08:21:44;;;;;;;4.45;2.70;;;19.70;90.90;;;;;;4999454;28;20219;-85
2023/05/20 08:24:09;;;;;;;68.78;32.90;;;19.80;90.70;;;;;;5008545;28;20599;-84
2023/05/20 08:26:35;;;;;;;3.53;2.60;;;20.00;90.70;;;;;;4999972;28;20046;-84
2023/05/20 08:29:01;;;;;;;4.07;3.03;;;20.40;90.10;;;;;;5012385;28;20034;-83
2023/05/20 08:31:27;;;;;;;2.55;2.35;;;20.50;88.70;;;;;;4997022;28;20037;-90
2023/05/20 08:33:54;;;;;;;5.30;2.88;;;20.60;88.40;;;;;;5001418;28;20398;-90
2023/05/20 08:36:20;;;;;;;4.25;2.78;;;20.80;87.70;;;;;;4999567;28;20109;-89
2023/05/20 08:38:48;;;;;;;3.88;2.80;;;21.30;86.80;;;;;;5003717;28;20145;-92
2023/05/20 08:41:30;;;;;;;9.10;2.55;;;21.30;85.30;;;;;;5102048;27;20408;-88
2023/05/20 08:43:58;;;;;;;3.22;2.92;;;21.40;85.40;;;;;;5094725;28;20418;-87
2023/05/20 08:46:24;;;;;;;2.92;2.63;;;21.50;84.40;;;;;;5112521;28;20082;-86
2023/05/20 08:48:50;;;;;;;4.65;2.80;;;21.50;83.70;;;;;;5099072;28;20043;-87
2023/05/20 08:51:19;;;;;;;4.65;2.85;;;21.60;83.80;;;;;;5105667;28;20115;-79
2023/05/20 08:53:45;;;;;;;5.95;2.92;;;21.60;84.20;;;;;;5093668;28;20048;-80
2023/05/20 08:56:11;;;;;;;5.75;3.10;;;21.70;82.20;;;;;;5094687;28;20028;-79
2023/05/20 08:58:37;;;;;;;5.38;3.17;;;21.70;83.70;;;;;;5093063;28;20016;-79
2023/05/20 09:01:03;;;;;;;5.80;3.83;;;22.00;82.70;;;;;;5094278;28;20560;-79
2023/05/20 09:03:29;;;;;;;6.28;2.88;;;22.20;81.30;;;;;;5091705;28;20605;-78
2023/05/20 09:06:06;;;;;;;5.05;3.03;;;22.30;82.40;;;;;;5087940;28;20096;-79
2023/05/20 09:08:33;;;;;;;7.82;2.80;;;22.30;81.60;;;;;;5085508;28;20043;-89
2023/05/20 09:10:59;;;;;;;4.72;2.60;;;22.70;79.90;;;;;;5105944;28;20560;-89
2023/05/20 09:13:27;;;;;;;9.55;2.83;;;22.50;79.40;;;;;;5100703;28;20024;-92
2023/05/20 09:15:53;;;;;;;9.00;2.63;;;22.70;79.90;;;;;;5095307;28;20949;-79
2023/05/20 09:18:18;;;;;;;3.75;3.28;;;22.90;78.70;;;;;;5091715;28;20039;-81
2023/05/20 09:20:49;;;;;;;5.53;2.97;;;22.70;78.40;;;;;;5108084;28;20086;-85
2023/05/20 09:23:23;;;;;;;5.25;3.05;;;22.60;78.50;;;;;;5090114;28;20031;-84
2023/05/20 09:25:52;;;;;;;4.20;3.00;;;22.50;77.70;;;;;;5089913;28;20058;-83
2023/05/20 09:28:22;;;;;;;4.00;2.70;;;22.00;79.20;;;;;;5091822;28;20032;-85
2023/05/20 09:30:50;;;;;;;15.05;7.43;;;21.60;79.50;;;;;;5107450;28;20031;-89
2023/05/20 09:33:15;;;;;;;12.38;3.53;;;21.70;80.60;;;;;;5103147;28;20026;-86
2023/05/20 09:35:41;;;;;;;3.38;2.60;;;21.70;79.80;;;;;;5110281;28;20503;-87
2023/05/20 09:38:11;;;;;;;3.08;2.67;;;21.70;79.80;;;;;;5102503;28;20031;-87
2023/05/20 09:40:37;;;;;;;6.75;2.90;;;21.50;79.40;;;;;;5110925;28;20051;-88
2023/05/20 09:43:07;;;;;;;3.42;2.55;;;21.50;80.00;;;;;;5103595;28;20020;-85
2023/05/20 09:45:33;;;;;;;2.97;2.63;;;21.60;80.70;;;;;;5110900;28;20042;-86
2023/05/20 09:48:00;;;;;;;3.35;2.38;;;21.80;80.60;;;;;;5100453;28;20024;-86
2023/05/20 09:50:27;;;;;;;4.97;2.75;;;22.10;80.10;;;;;;5106231;28;20028;-86
2023/05/20 09:52:54;;;;;;;2.72;2.40;;;22.10;78.70;;;;;;5091006;28;20379;-83
2023/05/20 09:55:22;;;;;;;3.20;2.53;;;22.10;78.50;;;;;;5092883;28;20078;-86
2023/05/20 09:57:47;;;;;;;3.60;2.95;;;22.20;78.10;;;;;;5085658;28;20391;-88
2023/05/20 10:00:16;;;;;;;2.88;2.35;;;21.90;77.50;;;;;;5089744;28;20040;-84
2023/05/20 10:02:50;;;;;;;8.60;2.70;;;21.80;78.70;;;;;;5080056;28;20028;-86
2023/05/20 10:05:22;;;;;;;5.50;2.53;;;21.70;79.80;;;;;;5075472;28;20028;-86
2023/05/20 10:08:10;;;;;;;3.30;3.00;;;21.70;79.40;;;;;;5065625;28;20043;-84
2023/05/20 10:10:43;;;;;;;3.47;3.03;;;21.90;80.90;;;;;;5093126;28;20023;-88
2023/05/20 10:13:25;;;;;;;3.88;2.90;;;21.80;79.00;;;;;;5093532;28;20034;-86
2023/05/20 10:16:10;;;;;;;3.90;3.00;;;21.80;79.50;;;;;;5090027;28;20036;-88
2023/05/20 10:18:44;;;;;;;3.58;2.80;;;21.70;78.90;;;;;;5088388;28;20035;-86
2023/05/20 10:21:17;;;;;;;6.00;3.30;;;21.50;79.20;;;;;;5202808;22;20381;-85
2023/05/20 10:23:43;;;;;;;4.10;2.67;;;21.30;80.40;;;;;;5019073;28;20046;-85
2023/05/20 10:26:09;;;;;;;5.60;3.13;;;21.20;80.10;;;;;;5016402;28;20075;-82
2023/05/20 10:28:37;;;;;;;4.95;2.92;;;21.20;80.80;;;;;;5015303;28;21268;-82
2023/05/20 10:31:22;;;;;;;3.65;2.70;;;21.30;80.70;;;;;;5010288;28;20029;-87
2023/05/20 10:33:51;;;;;;;4.80;2.40;;;21.40;80.60;;;;;;5010421;28;20022;-78
2023/05/20 10:36:29;;;;;;;3.35;2.53;;;21.40;80.40;;;;;;5009261;28;20204;-77
2023/05/20 10:38:56;;;;;;;6.32;3.20;;;21.40;80.20;;;;;;5013841;28;20485;-76
2023/05/20 10:41:28;;;;;;;6.90;3.22;;;21.50;80.40;;;;;;5013280;28;20033;-77
2023/05/20 10:44:01;;;;;;;4.70;2.50;;;21.50;80.80;;;;;;5012934;28;20018;-77
2023/05/20 10:46:30;;;;;;;2.45;2.25;;;21.80;80.70;;;;;;5179427;22;20541;-84
2023/05/20 10:48:56;;;;;;;3.53;2.40;;;21.90;80.40;;;;;;5041613;28;20037;-82
2023/05/20 10:51:27;;;;;;;3.25;2.78;;;22.00;77.60;;;;;;5038733;28;20052;-83
2023/05/20 10:53:54;;;;;;;2.60;2.38;;;22.00;78.30;;;;;;5045175;28;20032;-80
2023/05/20 10:56:25;;;;;;;3.97;2.70;;;21.80;78.30;;;;;;5041678;28;20095;-78
2023/05/20 10:58:52;;;;;;;5.28;2.83;;;21.80;78.90;;;;;;5038387;28;20106;-78
2023/05/20 11:01:18;;;;;;;5.60;2.92;;;21.70;79.30;;;;;;5033308;28;20085;-78
2023/05/20 11:03:46;;;;;;;7.38;2.78;;;21.70;79.70;;;;;;5045411;28;20025;-83
2023/05/20 11:06:18;;;;;;;3.75;2.70;;;21.70;79.00;;;;;;5043365;28;20029;-86
2023/05/20 11:08:44;;;;;;;2.78;2.58;;;21.80;79.80;;;;;;5040842;28;20082;-81
2023/05/20 11:11:14;;;;;;;3.53;2.85;;;21.80;79.60;;;;;;5041176;28;20026;-82
2023/05/20 11:13:39;;;;;;;4.03;2.83;;;22.00;79.90;;;;;;5039707;28;20698;-81
2023/05/20 11:16:05;;;;;;;5.30;2.80;;;22.20;79.30;;;;;;5053144;28;20053;-79
2023/05/20 11:18:31;;;;;;;5.50;3.55;;;22.20;79.10;;;;;;5035859;28;20039;-83
2023/05/20 11:20:58;;;;;;;8.90;3.25;;;22.20;78.90;;;;;;5043286;28;20037;-86
2023/05/20 11:23:26;;;;;;;3.92;2.92;;;22.40;79.40;;;;;;5048102;28;20032;-86
2023/05/20 11:25:53;;;;;;;5.70;2.90;;;22.60;78.80;;;;;;5041100;28;20067;-80
2023/05/20 11:28:20;;;;;;;3.20;2.90;;;22.50;78.30;;;;;;5044121;28;20526;-81
2023/05/20 11:30:46;;;;;;;4.75;3.00;;;22.50;78.60;;;;;;5043538;28;20034;-82
2023/05/20 11:33:13;;;;;;;4.25;2.85;;;22.70;78.70;;;;;;5039913;28;20024;-81
2023/05/20 11:35:50;;;;;;;3.22;2.80;;;22.80;78.80;;;;;;5042523;28;20024;-83
2023/05/20 11:38:19;;;;;;;5.22;3.03;;;22.90;78.60;;;;;;5059338;28;20040;-83
2023/05/20 11:40:46;;;;;;;3.55;3.15;;;23.10;78.00;;;;;;5067368;28;20038;-83
2023/05/20 11:43:13;;;;;;;3.70;3.28;;;23.10;78.50;;;;;;5071394;28;20271;-84
2023/05/20 11:45:44;;;;;;;3.38;2.88;;;23.30;78.30;;;;;;5064837;28;20030;-79
2023/05/20 11:48:19;;;;;;;5.18;3.00;;;23.50;77.50;;;;;;5044230;28;20028;-88
2023/05/20 11:50:46;;;;;;;3.08;2.80;;;23.40;75.90;;;;;;5044846;28;20028;-85
2023/05/20 11:53:19;;;;;;;5.80;3.28;;;23.30;77.30;;;;;;5051842;28;20041;-94
2023/05/20 11:55:49;;;;;;;4.53;2.40;;;23.20;75.60;;;;;;5046532;28;20036;-84
2023/05/20 11:58:20;;;;;;;2.60;2.40;;;23.40;75.90;;;;;;5043080;28;20112;-82
2023/05/20 12:00:46;;;;;;;2.85;2.65;;;23.30;75.10;;;;;;5048023;28;20172;-96
2023/05/20 12:03:11;;;;;;;5.10;2.25;;;23.10;75.80;;;;;;5039273;28;20045;-81
2023/05/20 12:05:38;;;;;;;3.03;2.72;;;23.00;75.80;;;;;;5040616;28;20044;-75
2023/05/20 12:08:04;;;;;;;3.55;2.45;;;22.90;76.50;;;;;;5161567;22;20079;-77
2023/05/20 12:10:30;;;;;;;4.13;2.42;;;23.10;77.50;;;;;;5011959;28;20140;-78
2023/05/20 12:12:59;;;;;;;2.08;1.98;;;23.40;77.00;;;;;;5024876;28;20103;-81
2023/05/20 12:15:24;;;;;;;2.80;2.50;;;23.50;75.80;;;;;;5015913;28;20635;-80
2023/05/20 12:17:53;;;;;;;3.58;2.63;;;23.50;74.70;;;;;;5017363;28;20028;-86
2023/05/20 12:20:23;;;;;;;3.50;3.00;;;23.40;74.30;;;;;;5021547;28;20042;-80
2023/05/20 12:22:49;;;;;;;3.92;2.38;;;23.60;75.20;;;;;;5025097;28;20022;-84
2023/05/20 12:25:18;;;;;;;4.00;2.40;;;23.90;74.70;;;;;;5035047;28;20017;-79
2023/05/20 12:27:47;;;;;;;2.55;2.20;;;23.90;74.30;;;;;;5017854;28;20033;-79
2023/05/20 12:30:21;;;;;;;5.15;2.40;;;23.70;75.30;;;;;;5038413;28;20033;-91
2023/05/20 12:32:48;;;;;;;3.15;2.60;;;23.80;76.30;;;;;;5027537;28;20052;-93
2023/05/20 12:35:14;;;;;;;3.70;2.55;;;24.20;74.50;;;;;;5027297;28;20060;-90
2023/05/20 12:37:41;;;;;;;3.10;2.22;;;24.40;73.10;;;;;;5033190;28;20052;-90
2023/05/20 12:40:08;;;;;;;3.95;2.40;;;24.60;72.70;;;;;;5029477;28;20033;-92
2023/05/20 12:42:38;;;;;;;4.80;2.40;;;24.50;71.10;;;;;;5043899;28;20124;-91
2023/05/20 12:45:05;;;;;;;2.60;2.38;;;24.40;71.20;;;;;;5034212;28;20437;-90
2023/05/20 12:47:36;;;;;;;5.55;2.38;;;24.50;71.40;;;;;;5042377;28;20085;-92
2023/05/20 12:50:07;;;;;;;4.10;2.38;;;24.80;69.90;;;;;;5021842;28;20035;-91
2023/05/20 12:52:33;;;;;;;4.57;2.45;;;24.90;69.40;;;;;;5030330;28;20569;-91
2023/05/20 12:54:58;;;;;;;3.15;2.30;;;25.40;70.00;;;;;;5029909;28;20056;-92
2023/05/20 12:57:24;;;;;;;2.63;2.42;;;25.50;68.20;;;;;;5033820;28;20503;-90